Time;durP1;ratioP1;P1;durP2;ratioP2;P2;SDS_P1;SDS_P2;PMS_P1;PMS_P2;Temp;Humidity;BMP_temperature;BMP_pressure;BME280_temperature;BME280_humidity;BME280_pressure;Samples;Min_cycle;Max_cycle;Signal;HPM_P1;HPM_P2
2023/02/23 00:00:19;;;;;;;4.35;2.78;;;;;;;3.63;69.34;96337.66;5056216;28;20049;-65
2023/02/23 00:02:51;;;;;;;6.07;3.42;;;;;;;3.51;69.46;96341.28;5056223;28;20049;-66
2023/02/23 00:05:19;;;;;;;7.00;2.90;;;;;;;3.46;69.11;96337.88;5056086;28;20099;-66
2023/02/23 00:07:47;;;;;;;9.15;3.60;;;;;;;3.46;68.76;96340.47;5056094;28;20048;-67
2023/02/23 00:10:20;;;;;;;6.53;3.53;;;;;;;3.44;68.55;96339.63;5055888;28;20079;-66
2023/02/23 00:12:49;;;;;;;5.43;3.40;;;;;;;3.33;69.04;96344.06;5056022;28;20072;-67
2023/02/23 00:15:17;;;;;;;9.82;3.10;;;;;;;3.27;70.32;96342.41;5055522;28;20088;-65
2023/02/23 00:17:47;;;;;;;6.28;3.05;;;;;;;3.31;70.89;96344.09;5055874;28;20052;-65
2023/02/23 00:20:18;;;;;;;5.75;3.10;;;;;;;3.29;70.17;96354.44;5055830;28;20441;-65
2023/02/23 00:22:55;;;;;;;10.40;3.20;;;;;;;3.33;69.68;96351.84;5055700;28;20045;-67
2023/02/23 00:25:31;;;;;;;4.97;2.75;;;;;;;3.35;69.90;96361.31;5055605;28;20063;-65
2023/02/23 00:28:06;;;;;;;4.40;3.05;;;;;;;3.32;69.90;96351.00;5055577;28;20044;-63
2023/02/23 00:30:34;;;;;;;4.32;3.00;;;;;;;3.29;69.51;96346.69;5055494;28;20052;-66
2023/02/23 00:33:03;;;;;;;4.88;2.97;;;;;;;3.21;69.43;96347.66;5055533;28;20388;-66
2023/02/23 00:35:33;;;;;;;6.35;2.85;;;;;;;3.19;69.14;96349.44;5055155;28;20056;-65
2023/02/23 00:38:01;;;;;;;4.40;2.47;;;;;;;3.13;68.77;96343.44;5055551;28;20059;-68
2023/02/23 00:40:32;;;;;;;6.03;4.00;;;;;;;3.09;69.04;96346.06;5055486;28;20048;-64
2023/02/23 00:43:00;;;;;;;76.53;43.08;;;;;;;3.06;69.19;96343.53;5055414;28;20041;-63
2023/02/23 00:45:29;;;;;;;16.67;10.43;;;;;;;2.97;69.76;96334.16;5055314;28;20052;-67
2023/02/23 00:47:59;;;;;;;8.18;4.53;;;;;;;2.88;69.68;96332.53;5055258;28;20041;-66
2023/02/23 00:50:28;;;;;;;7.25;3.58;;;;;;;2.92;70.15;96336.78;5055210;28;20128;-66
2023/02/23 00:52:58;;;;;;;7.95;4.20;;;;;;;2.91;70.68;96337.66;5055076;28;20128;-68
2023/02/23 00:55:28;;;;;;;6.43;4.22;;;;;;;2.97;73.21;96334.16;5055135;28;20106;-64
2023/02/23 00:58:03;;;;;;;9.25;4.10;;;;;;;2.88;73.86;96335.97;5054909;28;20491;-63
2023/02/23 01:00:32;;;;;;;6.72;3.85;;;;;;;2.81;73.60;96334.31;5055005;28;20053;-64
2023/02/23 01:03:00;;;;;;;7.88;4.43;;;;;;;2.81;75.02;96331.75;5055136;28;20049;-65
2023/02/23 01:05:35;;;;;;;4.63;3.40;;;;;;;2.78;75.33;96342.97;5055110;28;20045;-64
2023/02/23 01:08:09;;;;;;;5.68;3.17;;;;;;;2.81;74.53;96336.91;5054882;28;20041;-66
2023/02/23 01:10:41;;;;;;;8.32;3.00;;;;;;;2.79;71.23;96328.31;5054770;28;20128;-66
2023/02/23 01:13:12;;;;;;;5.93;3.45;;;;;;;2.79;72.12;96338.66;5054978;28;20565;-64
2023/02/23 01:15:54;;;;;;;5.20;3.30;;;;;;;2.74;72.11;96330.94;5054511;28;20053;-69
2023/02/23 01:18:24;;;;;;;4.35;2.90;;;;;;;2.85;71.37;96335.13;5054632;28;20055;-68
2023/02/23 01:20:51;;;;;;;5.50;2.83;;;;;;;2.87;72.10;96335.97;5054693;28;20110;-65
2023/02/23 01:23:24;;;;;;;5.35;2.80;;;;;;;2.90;71.11;96333.38;5054732;28;20041;-66
2023/02/23 01:26:05;;;;;;;9.05;3.65;;;;;;;2.79;71.25;96336.06;5054743;28;20056;-67
2023/02/23 01:28:39;;;;;;;10.30;3.10;;;;;;;2.74;71.33;96335.25;5054722;28;20132;-65
2023/02/23 01:31:10;;;;;;;9.18;2.90;;;;;;;2.75;71.78;96336.97;5054568;28;20142;-68
2023/02/23 01:33:39;;;;;;;6.63;3.33;;;;;;;2.64;71.98;96340.50;5054728;28;20049;-66
2023/02/23 01:36:08;;;;;;;5.00;2.92;;;;;;;2.57;73.02;96336.28;5054348;28;20048;-67
2023/02/23 01:38:38;;;;;;;5.65;3.58;;;;;;;2.50;72.69;96337.22;5054274;28;20052;-68
2023/02/23 01:41:11;;;;;;;4.70;2.70;;;;;;;2.44;72.41;96338.09;5054238;28;20506;-65
2023/02/23 01:43:58;;;;;;;7.68;3.75;;;;;;;2.41;72.87;96340.75;5054172;28;20052;-66
2023/02/23 01:46:27;;;;;;;6.20;3.30;;;;;;;2.39;73.06;96332.13;5053646;28;20522;-68
2023/02/23 01:48:56;;;;;;;7.70;3.70;;;;;;;2.32;73.48;96336.47;5053962;28;20060;-67
2023/02/23 01:51:27;;;;;;;10.68;3.58;;;;;;;2.27;74.01;96336.53;5054142;28;20049;-64
2023/02/23 01:54:04;;;;;;;5.00;3.17;;;;;;;2.34;73.51;96339.06;5054022;28;20086;-64
2023/02/23 01:56:34;;;;;;;6.63;3.45;;;;;;;2.34;72.81;96341.63;5054094;28;20045;-68
2023/02/23 01:59:11;;;;;;;5.63;3.13;;;;;;;2.28;73.10;96337.38;5053982;28;20049;-66
2023/02/23 02:01:39;;;;;;;5.72;3.60;;;;;;;2.24;72.60;96335.69;5053950;28;20483;-67
2023/02/23 02:04:07;;;;;;;3.95;3.17;;;;;;;2.22;72.51;96333.13;5053751;28;20087;-67
2023/02/23 02:06:36;;;;;;;4.70;2.90;;;;;;;2.07;73.10;96331.53;5054189;28;20052;-66
2023/02/23 02:09:09;;;;;;;6.47;3.42;;;;;;;2.04;73.17;96341.03;5054026;28;20499;-65
2023/02/23 02:11:37;;;;;;;6.15;3.90;;;;;;;1.99;73.52;96330.75;5053734;28;20498;-65
2023/02/23 02:14:11;;;;;;;8.15;5.03;;;;;;;2.05;73.66;96335.88;5053794;28;20052;-68
2023/02/23 02:17:01;;;;;;;158.05;90.88;;;;;;;1.99;73.84;96336.75;5053651;28;20431;-68
2023/02/23 02:20:31;;;;;;;42.10;25.55;;;;;;;1.97;74.03;96341.06;5053497;28;20045;-66
2023/02/23 02:23:32;;;;;;;8.15;5.57;;;;;;;1.94;74.69;96346.25;5053612;28;20107;-66
2023/02/23 02:26:11;;;;;;;7.57;3.20;;;;;;;1.88;74.45;96346.28;5049061;28;20402;-66
2023/02/23 02:29:11;;;;;;;3.80;2.92;;;;;;;1.90;74.10;96347.16;5053552;28;20045;-64
2023/02/23 02:32:10;;;;;;;7.57;3.28;;;;;;;1.87;74.01;96342.84;5053436;28;20553;-63
2023/02/23 02:35:07;;;;;;;6.93;3.45;;;;;;;1.72;74.22;96351.53;5053412;28;20048;-69
2023/02/23 02:38:04;;;;;;;6.88;3.75;;;;;;;1.74;74.57;96354.97;5053444;28;20057;-67
2023/02/23 02:40:40;;;;;;;4.95;3.35;;;;;;;1.73;74.90;96349.81;5053359;28;20564;-66
2023/02/23 02:43:15;;;;;;;4.80;3.50;;;;;;;1.66;75.67;96350.72;5053212;28;20056;-68
2023/02/23 02:45:50;;;;;;;6.30;3.75;;;;;;;1.61;76.69;96355.91;5053116;28;20094;-67
2023/02/23 02:48:25;;;;;;;6.93;3.67;;;;;;;1.55;76.08;96350.78;5053287;28;20056;-68
2023/02/23 02:50:56;;;;;;;5.47;3.53;;;;;;;1.47;76.10;96354.25;5053096;28;20487;-65
2023/02/23 02:53:30;;;;;;;4.63;3.25;;;;;;;1.51;76.24;96357.69;5053190;28;20076;-66
2023/02/23 02:56:01;;;;;;;6.97;3.78;;;;;;;1.55;75.95;96350.78;5053039;28;20143;-66
2023/02/23 02:58:32;;;;;;;7.95;3.60;;;;;;;1.58;75.59;96361.94;5053014;28;20044;-66
2023/02/23 04:20:01;;;;;;;9.35;4.40;;;;;;;0.83;78.10;96366.50;5056208;28;20052;-67
2023/02/23 04:22:28;;;;;;;5.95;3.78;;;;;;;0.82;78.57;96359.63;5055895;28;20049;-69
2023/02/23 04:24:55;;;;;;;9.65;4.60;;;;;;;0.79;79.35;96365.66;5055801;28;20135;-66
2023/02/23 04:27:23;;;;;;;10.48;4.45;;;;;;;0.72;79.38;96358.81;5055679;28;20044;-65
2023/02/23 04:29:50;;;;;;;7.78;4.63;;;;;;;0.79;78.67;96364.78;5055770;28;20049;-66
2023/02/23 04:32:19;;;;;;;218.52;123.60;;;;;;;0.79;78.29;96368.22;5055750;28;20045;-66
2023/02/23 04:34:48;;;;;;;33.55;18.50;;;;;;;0.69;79.49;96362.22;5055738;28;20450;-69
2023/02/23 04:37:15;;;;;;;29.27;16.70;;;;;;;0.75;79.70;96369.94;5055522;28;20490;-68
2023/02/23 04:39:47;;;;;;;12.40;5.30;;;;;;;0.80;79.12;96371.66;5055532;28;20069;-66
2023/02/23 04:42:15;;;;;;;7.82;4.55;;;;;;;0.77;78.80;96369.94;5055540;28;20053;-67
2023/02/23 04:44:44;;;;;;;10.35;4.63;;;;;;;0.84;78.16;96371.63;5055593;28;20090;-67
2023/02/23 04:47:11;;;;;;;8.75;4.28;;;;;;;0.82;78.08;96373.38;5055487;28;20049;-64
2023/02/23 04:49:39;;;;;;;5.40;4.03;;;;;;;0.80;77.74;96371.66;5055346;28;20049;-64
2023/02/23 04:52:08;;;;;;;7.97;4.93;;;;;;;0.79;78.22;96370.81;5055711;28;20103;-69
2023/02/23 04:54:38;;;;;;;9.35;5.15;;;;;;;0.82;77.91;96375.09;5055069;28;20051;-64
2023/02/23 04:57:07;;;;;;;7.30;4.25;;;;;;;0.77;77.29;96376.81;5055399;28;20053;-67
2023/02/23 04:59:35;;;;;;;7.85;4.53;;;;;;;0.67;77.91;96375.97;5055209;28;20125;-69
2023/02/23 05:02:03;;;;;;;11.82;4.65;;;;;;;0.61;78.66;96367.38;5055245;28;20041;-64
2023/02/23 05:04:32;;;;;;;39.13;17.60;;;;;;;0.60;78.72;96377.72;5055026;28;20049;-66
2023/02/23 05:07:11;;;;;;;23.80;10.45;;;;;;;0.61;79.08;96380.25;5055027;28;20083;-64
2023/02/23 05:09:39;;;;;;;8.30;5.20;;;;;;;0.66;78.28;96380.25;5054990;28;20060;-63
2023/02/23 05:12:11;;;;;;;12.27;5.05;;;;;;;0.69;78.46;96382.81;5054868;28;20458;-66
2023/02/23 05:14:40;;;;;;;6.28;5.00;;;;;;;0.71;78.33;96386.28;5054877;28;20132;-67
2023/02/23 05:17:07;;;;;;;8.55;5.95;;;;;;;0.75;78.32;96385.41;5054596;28;20450;-64
2023/02/23 05:19:40;;;;;;;10.70;6.53;;;;;;;0.79;78.60;96382.81;5054683;28;20045;-65
2023/02/23 05:22:11;;;;;;;15.23;7.30;;;;;;;0.77;79.13;96389.69;5053668;28;20402;-67
2023/02/23 05:24:40;;;;;;;12.65;7.25;;;;;;;0.85;79.00;96390.53;5054708;28;20053;-69
2023/02/23 05:27:07;;;;;;;10.85;6.97;;;;;;;0.94;79.03;96393.09;5054708;28;20063;-65
2023/02/23 05:29:35;;;;;;;10.13;5.07;;;;;;;0.96;79.17;96399.09;5054559;28;20045;-68
2023/02/23 05:32:03;;;;;;;10.07;6.20;;;;;;;1.07;79.13;96411.09;5054792;28;20041;-64
2023/02/23 05:34:30;;;;;;;8.32;3.92;;;;;;;1.17;77.94;96407.63;5054499;28;20128;-68
2023/02/23 05:36:58;;;;;;;11.77;6.32;;;;;;;1.24;77.35;96414.47;5054444;28;20111;-62
2023/02/23 05:39:25;;;;;;;8.82;4.82;;;;;;;1.29;77.05;96427.34;5054348;28;20080;-68
2023/02/23 05:41:54;;;;;;;6.97;4.90;;;;;;;1.34;76.49;96425.63;5054576;28;20499;-69
2023/02/23 05:44:22;;;;;;;12.77;4.63;;;;;;;1.45;77.07;96425.59;5054330;28;20087;-68
2023/02/23 05:46:49;;;;;;;7.82;4.60;;;;;;;2.12;76.41;96434.72;5054292;28;20414;-68
2023/02/23 05:49:17;;;;;;;8.85;6.43;;;;;;;3.28;72.87;96427.72;5054303;28;20041;-67
2023/02/23 05:51:45;;;;;;;12.65;3.85;;;;;;;4.46;67.33;96439.19;5054104;28;20398;-65
2023/02/23 05:54:16;;;;;;;7.85;3.33;;;;;;;5.43;62.55;96444.47;5054178;28;20555;-67
2023/02/23 05:56:43;;;;;;;7.55;4.07;;;;;;;6.49;61.40;96461.34;5054110;28;20138;-67
2023/02/23 05:59:13;;;;;;;10.55;2.90;;;;;;;7.32;56.67;96466.25;5054329;28;20051;-65
2023/02/23 06:01:40;;;;;;;7.57;3.92;;;;;;;8.30;55.63;96467.91;5053957;28;20095;-64
2023/02/23 06:04:07;;;;;;;8.38;3.97;;;;;;;9.34;52.34;96474.22;5053882;28;20048;-67
2023/02/23 06:06:35;;;;;;;7.13;4.32;;;;;;;10.30;49.45;96466.44;5053750;28;20053;-69
2023/02/23 06:09:03;;;;;;;5.30;3.45;;;;;;;11.05;46.61;96468.81;5053868;28;20091;-65
2023/02/23 06:11:30;;;;;;;7.60;3.92;;;;;;;11.65;46.04;96461.94;5053836;28;20084;-65
2023/02/23 06:13:59;;;;;;;6.18;3.63;;;;;;;12.41;44.74;96462.16;5053703;28;20049;-68
2023/02/23 06:16:28;;;;;;;7.00;3.63;;;;;;;13.04;42.16;96463.53;5053485;28;20053;-68
2023/02/23 06:18:55;;;;;;;7.28;3.55;;;;;;;13.56;42.02;96468.88;5053676;28;20056;-67
2023/02/23 06:21:23;;;;;;;12.20;4.40;;;;;;;14.38;41.61;96476.88;5053564;28;20048;-67
2023/02/23 06:23:52;;;;;;;5.50;3.45;;;;;;;15.02;38.84;96478.69;5053652;28;20060;-64
2023/02/23 06:26:20;;;;;;;8.85;4.05;;;;;;;15.40;38.47;96472.13;5053542;28;20384;-65
2023/02/23 06:28:47;;;;;;;8.02;3.53;;;;;;;15.69;38.86;96474.84;5053797;28;20056;-66
2023/02/23 06:31:14;;;;;;;8.23;4.00;;;;;;;16.09;38.33;96474.25;5053491;28;20554;-65
2023/02/23 06:33:43;;;;;;;9.45;3.55;;;;;;;16.64;37.98;96478.78;5053117;28;20040;-68
2023/02/23 06:36:10;;;;;;;7.35;3.65;;;;;;;16.86;37.34;96480.88;5053392;28;20095;-64
2023/02/23 06:38:39;;;;;;;9.70;3.92;;;;;;;17.33;36.50;96480.56;5053279;28;20107;-67
2023/02/23 06:41:10;;;;;;;3.70;2.85;;;;;;;17.84;34.77;96478.09;5053356;28;20053;-66
2023/02/23 06:43:37;;;;;;;;;;;;;;;18.38;33.66;96482.31;5053687;28;20483;-68
2023/02/23 06:46:05;;;;;;;5.07;2.65;;;;;;;18.93;32.88;96487.25;5053205;28;19920;-64
2023/02/23 06:48:34;;;;;;;4.82;2.75;;;;;;;19.53;31.83;96483.81;5053181;28;20051;-65
2023/02/23 06:51:03;;;;;;;9.23;3.58;;;;;;;20.24;31.03;96484.69;5053089;28;20485;-65
2023/02/23 06:53:30;;;;;;;5.05;3.70;;;;;;;20.56;30.41;96481.28;5053050;28;20049;-65
2023/02/23 06:55:58;;;;;;;6.25;3.50;;;;;;;20.79;30.43;96475.94;5053177;28;20052;-64
2023/02/23 06:58:26;;;;;;;12.50;4.82;;;;;;;21.25;29.73;96478.47;5053042;28;20080;-66
2023/02/23 07:00:55;;;;;;;6.63;3.97;;;;;;;21.87;28.84;96475.19;5052909;28;20041;-63
2023/02/23 07:03:23;;;;;;;4.90;3.78;;;;;;;22.20;28.44;96475.91;5052959;28;20051;-65
2023/02/23 07:05:51;;;;;;;6.10;4.10;;;;;;;22.33;27.84;96475.69;5052897;28;20088;-66
2023/02/23 07:08:20;;;;;;;9.82;3.88;;;;;;;22.80;27.98;96473.47;5053066;28;20060;-64
2023/02/23 07:10:47;;;;;;;8.90;3.92;;;;;;;23.30;27.04;96474.38;5053262;28;20128;-66
2023/02/23 07:13:14;;;;;;;6.63;3.85;;;;;;;23.27;27.45;96478.16;5053161;28;20045;-66
2023/02/23 07:15:42;;;;;;;6.22;2.92;;;;;;;23.28;27.43;96474.53;5052803;28;20053;-65
2023/02/23 07:18:09;;;;;;;5.40;3.40;;;;;;;23.50;26.85;96469.09;5052830;28;20128;-63
2023/02/23 07:20:36;;;;;;;6.47;3.58;;;;;;;23.16;26.97;96471.16;5052846;28;20080;-65
2023/02/23 07:23:03;;;;;;;6.45;3.78;;;;;;;22.78;27.90;96476.28;5052756;28;20491;-65
2023/02/23 07:25:32;;;;;;;9.60;5.88;;;;;;;22.21;28.78;96476.75;5052797;28;20041;-63
2023/02/23 07:27:59;;;;;;;9.25;4.53;;;;;;;21.48;29.48;96473.06;5052792;28;20056;-63
2023/02/23 07:30:26;;;;;;;10.43;4.53;;;;;;;21.41;30.17;96474.56;5052820;28;20049;-65
2023/02/23 07:32:54;;;;;;;10.18;3.75;;;;;;;21.24;30.06;96476.78;5052758;28;20132;-65
2023/02/23 07:35:21;;;;;;;11.48;4.13;;;;;;;20.88;30.94;96486.78;5052730;28;20053;-66
2023/02/23 07:37:48;;;;;;;6.05;3.30;;;;;;;20.31;31.90;96487.69;5052632;28;20114;-63
2023/02/23 07:40:16;;;;;;;8.80;3.50;;;;;;;20.73;31.24;96480.88;5052830;28;20056;-67
2023/02/23 07:42:45;;;;;;;10.18;5.13;;;;;;;21.27;30.06;96486.31;5052742;28;20049;-66
2023/02/23 07:45:12;;;;;;;7.38;2.75;;;;;;;22.25;28.86;96482.66;5053415;28;20085;-67
2023/02/23 07:47:39;;;;;;;6.15;2.88;;;;;;;21.99;29.57;96486.59;5056627;28;20060;-65
2023/02/23 07:50:09;;;;;;;7.15;3.30;;;;;;;21.51;30.10;96494.09;5056367;28;20140;-63
2023/02/23 07:52:37;;;;;;;8.60;3.25;;;;;;;21.00;30.50;96488.47;5056436;28;20095;-66
2023/02/23 07:55:05;;;;;;;6.57;3.22;;;;;;;21.02;30.84;96493.69;5056341;28;20076;-66
2023/02/23 07:57:33;;;;;;;8.05;2.72;;;;;;;21.62;29.99;96487.88;5056308;28;20060;-63
2023/02/23 08:00:02;;;;;;;10.73;5.45;;;;;;;21.31;30.24;96493.09;5056418;28;20057;-65
2023/02/23 08:02:31;;;;;;;9.32;3.63;;;;;;;21.09;30.59;96489.53;5056170;28;20052;-65
2023/02/23 08:04:58;;;;;;;6.68;2.95;;;;;;;19.86;32.80;96494.63;5056297;28;20048;-67
2023/02/23 08:07:25;;;;;;;6.40;2.63;;;;;;;19.31;34.03;96498.69;5056170;28;20572;-65
2023/02/23 08:09:53;;;;;;;4.88;2.47;;;;;;;19.09;34.58;96491.47;5056038;28;20063;-65
2023/02/23 08:12:20;;;;;;;4.65;2.20;;;;;;;18.83;34.83;96502.13;5056025;28;20056;-63
2023/02/23 08:14:47;;;;;;;6.43;2.58;;;;;;;18.56;35.54;96498.72;5055933;28;20128;-65
2023/02/23 08:17:16;;;;;;;5.40;2.40;;;;;;;18.03;36.59;96501.50;5056121;28;20047;-67
2023/02/23 08:19:43;;;;;;;9.57;3.08;;;;;;;17.64;37.31;96499.66;5056162;28;20507;-65
2023/02/23 08:22:10;;;;;;;6.53;2.45;;;;;;;17.06;38.64;96497.25;5056040;28;20507;-64
2023/02/23 08:24:38;;;;;;;7.65;2.38;;;;;;;16.65;39.60;96497.16;5055803;28;20087;-63
2023/02/23 08:27:05;;;;;;;7.32;2.80;;;;;;;16.59;40.03;96504.66;5055752;28;20414;-63
2023/02/23 08:29:33;;;;;;;5.45;2.53;;;;;;;16.33;40.99;96500.06;5055799;28;20107;-62
2023/02/23 08:32:02;;;;;;;9.25;3.28;;;;;;;16.28;41.07;96507.41;5055618;28;20380;-65
2023/02/23 08:34:31;;;;;;;9.65;3.10;;;;;;;16.13;40.91;96506.53;5055839;28;20056;-67
2023/02/23 08:36:58;;;;;;;7.82;3.05;;;;;;;16.06;41.60;96502.59;5055617;28;20049;-64
2023/02/23 08:39:25;;;;;;;12.73;3.97;;;;;;;16.02;41.47;96512.50;5055564;28;20060;-65
2023/02/23 08:41:54;;;;;;;8.90;3.03;;;;;;;15.71;41.78;96506.41;5055520;28;20052;-68
2023/02/23 08:44:21;;;;;;;8.48;3.33;;;;;;;15.22;42.83;96517.06;5055495;28;20049;-65
2023/02/23 08:46:49;;;;;;;6.78;2.53;;;;;;;15.15;44.39;96510.44;5055515;28;20049;-68
2023/02/23 08:49:16;;;;;;;7.38;2.90;;;;;;;15.23;44.20;96508.22;5055236;28;20056;-66
2023/02/23 08:51:45;;;;;;;7.47;2.60;;;;;;;14.92;45.42;96512.59;5055247;28;20080;-67
2023/02/23 08:54:15;;;;;;;13.33;2.80;;;;;;;14.80;45.51;96513.28;5055418;28;20045;-67
2023/02/23 08:56:42;;;;;;;7.28;3.10;;;;;;;14.83;44.58;96513.09;5054947;28;20289;-65
2023/02/23 08:59:09;;;;;;;16.50;3.17;;;;;;;14.68;44.16;96520.03;5055389;28;20044;-67
2023/02/23 09:01:37;;;;;;;7.63;2.50;;;;;;;14.78;44.62;96519.47;5055474;28;20411;-65
2023/02/23 09:04:04;;;;;;;12.25;3.15;;;;;;;14.80;44.63;96518.53;5055042;28;20495;-67
2023/02/23 09:06:34;;;;;;;5.40;2.60;;;;;;;14.41;44.62;96513.56;5055171;28;20107;-66
2023/02/23 09:09:02;;;;;;;7.53;2.90;;;;;;;14.30;45.66;96514.13;5055069;28;20508;-65
2023/02/23 09:11:29;;;;;;;7.13;2.88;;;;;;;13.93;46.54;96516.09;5055093;28;20398;-64
2023/02/23 09:13:57;;;;;;;9.75;3.58;;;;;;;13.57;47.39;96517.91;5054957;28;20051;-63
2023/02/23 09:16:24;;;;;;;6.35;3.30;;;;;;;13.21;48.38;96517.84;5054854;28;20574;-65
2023/02/23 09:18:51;;;;;;;9.48;3.55;;;;;;;13.02;48.81;96526.63;5054896;28;20495;-66
2023/02/23 09:21:24;;;;;;;8.77;3.45;;;;;;;12.97;49.16;96518.09;5054705;28;20049;-63
2023/02/23 09:23:54;;;;;;;9.40;3.85;;;;;;;12.71;50.50;96519.34;5054705;28;20388;-68
2023/02/23 09:26:23;;;;;;;;;;;;;;;12.47;50.92;96524.81;5055046;28;20102;-68
2023/02/23 09:28:51;;;;;;;12.65;4.07;;;;;;;12.48;51.92;96522.13;5054581;28;20011;-65
2023/02/23 09:31:19;;;;;;;8.20;3.50;;;;;;;12.54;51.24;96518.38;5054628;28;20119;-64
2023/02/23 09:33:47;;;;;;;10.15;3.65;;;;;;;12.62;51.92;96523.25;5054471;28;20148;-68
2023/02/23 09:36:16;;;;;;;12.80;4.20;;;;;;;12.83;51.82;96525.81;5054494;28;20060;-66
2023/02/23 09:38:44;;;;;;;9.50;3.83;;;;;;;12.78;51.30;96533.88;5054383;28;20489;-64
2023/02/23 09:41:51;;;;;;;14.05;4.03;;;;;;;12.76;51.37;96533.97;5054411;28;20044;-64
2023/02/23 09:44:26;;;;;;;5.97;4.10;;;;;;;12.71;51.03;96519.34;5054491;28;20049;-67
2023/02/23 09:47:05;;;;;;;11.30;4.28;;;;;;;12.75;51.86;96524.41;5054363;28;20560;-63
2023/02/23 09:49:37;;;;;;;7.50;3.78;;;;;;;12.92;50.71;96521.88;5054259;28;20045;-63
2023/02/23 09:52:05;;;;;;;9.30;3.88;;;;;;;12.91;51.18;96518.41;5054185;28;20057;-64
2023/02/23 09:54:35;;;;;;;11.48;4.75;;;;;;;12.94;50.80;96518.25;5054164;28;20048;-64
2023/02/23 09:57:11;;;;;;;7.07;4.00;;;;;;;12.83;51.57;96512.69;5054067;28;20072;-67
2023/02/23 09:59:39;;;;;;;6.60;3.88;;;;;;;12.94;50.95;96520.88;5054184;28;20127;-66
2023/02/23 10:02:22;;;;;;;8.75;4.15;;;;;;;12.72;51.43;96518.44;5053951;28;20080;-67
2023/02/23 10:04:52;;;;;;;8.52;4.18;;;;;;;12.53;52.42;96516.69;5053933;28;20052;-64
2023/02/23 10:07:26;;;;;;;6.28;4.32;;;;;;;12.38;53.14;96526.94;5053659;28;20491;-65
2023/02/23 10:10:21;;;;;;;7.75;4.15;;;;;;;12.27;53.36;96510.84;5053676;28;20060;-66
2023/02/23 10:13:00;;;;;;;12.10;4.88;;;;;;;12.54;53.15;96514.88;5053787;28;20045;-66
2023/02/23 10:15:37;;;;;;;10.00;4.70;;;;;;;12.64;52.69;96519.63;5053504;28;20053;-68
2023/02/23 10:18:15;;;;;;;11.45;4.78;;;;;;;12.48;53.50;96516.88;5053649;28;20124;-63
2023/02/23 10:20:50;;;;;;;11.57;5.70;;;;;;;12.15;54.50;96514.88;5053612;28;20107;-65
2023/02/23 10:23:29;;;;;;;11.70;5.15;;;;;;;11.78;55.51;96509.44;5053671;28;20060;-66
2023/02/23 10:25:59;;;;;;;8.77;5.30;;;;;;;11.60;56.18;96511.94;5053578;28;20049;-66
2023/02/23 10:28:33;;;;;;;11.10;5.07;;;;;;;11.50;56.80;96518.50;5053517;28;20049;-68
2023/02/23 10:31:01;;;;;;;10.60;5.53;;;;;;;11.47;57.75;96522.06;5053617;28;20079;-64
2023/02/23 10:33:35;;;;;;;11.20;5.93;;;;;;;11.52;57.42;96514.03;5053581;28;20057;-66
2023/02/23 10:36:12;;;;;;;14.90;6.88;;;;;;;11.45;57.16;96516.06;5053512;28;20076;-64
2023/02/23 10:38:40;;;;;;;13.55;7.13;;;;;;;11.62;57.35;96517.13;5053400;28;20056;-65
2023/02/23 10:41:09;;;;;;;11.85;6.35;;;;;;;11.81;57.00;96517.19;5053308;28;20049;-63
2023/02/23 10:43:37;;;;;;;10.65;6.32;;;;;;;11.66;56.22;96518.69;5053417;28;20076;-66
2023/02/23 10:46:06;;;;;;;27.27;7.25;;;;;;;11.48;56.78;96521.19;5053341;28;20471;-66
2023/02/23 10:48:39;;;;;;;11.25;5.68;;;;;;;11.51;57.76;96507.09;5053324;28;20067;-66
2023/02/23 10:51:14;;;;;;;15.55;6.25;;;;;;;11.65;57.03;96510.91;5053223;28;20044;-65
2023/02/23 10:53:42;;;;;;;11.00;5.93;;;;;;;11.57;57.06;96503.38;5053293;28;20048;-65
2023/02/23 10:56:12;;;;;;;10.65;5.90;;;;;;;11.30;57.82;96524.56;5053352;28;20095;-65
2023/02/23 10:58:45;;;;;;;13.15;5.97;;;;;;;11.27;58.17;96512.44;5053094;28;20059;-63
2023/02/23 11:01:13;;;;;;;11.52;5.95;;;;;;;11.33;58.34;96506.09;5053059;28;20041;-63
2023/02/23 11:03:44;;;;;;;16.77;6.30;;;;;;;11.35;57.77;96514.75;5053229;28;20110;-66
2023/02/23 11:06:30;;;;;;;16.77;6.35;;;;;;;11.19;58.53;96507.53;5053165;28;20045;-64
2023/02/23 11:08:57;;;;;;;12.20;5.85;;;;;;;11.18;58.37;96505.81;5052966;28;20605;-64
2023/02/23 11:11:27;;;;;;;12.52;5.90;;;;;;;11.17;58.28;96511.94;5052947;28;20080;-65
2023/02/23 11:13:57;;;;;;;6.68;4.72;;;;;;;11.18;58.76;96511.06;5052980;28;20049;-65
2023/02/23 11:16:25;;;;;;;12.65;6.10;;;;;;;11.29;58.57;96513.22;5052794;28;20525;-66
2023/02/23 11:18:56;;;;;;;16.00;6.38;;;;;;;11.24;58.81;96515.19;5052946;28;20049;-65
2023/02/23 11:21:32;;;;;;;11.65;6.05;;;;;;;11.41;58.33;96509.22;5056036;28;20072;-66
2023/02/23 11:24:05;;;;;;;12.75;6.28;;;;;;;11.46;57.27;96509.03;5057066;28;20140;-65
2023/02/23 11:26:38;;;;;;;17.90;6.47;;;;;;;11.59;57.59;96512.84;5056821;28;20107;-63
2023/02/23 11:29:15;;;;;;;14.40;7.32;;;;;;;11.56;57.55;96512.16;5056827;28;20483;-64
2023/02/23 11:31:48;;;;;;;14.63;7.25;;;;;;;11.58;57.34;96505.91;5056811;28;20052;-65
2023/02/23 11:34:23;;;;;;;11.05;7.50;;;;;;;11.52;57.42;96498.31;5057007;28;20053;-63
2023/02/23 11:37:01;;;;;;;14.13;8.10;;;;;;;11.52;57.18;96500.06;5056794;28;20045;-65
2023/02/23 11:39:28;;;;;;;13.57;7.43;;;;;;;11.21;57.60;96523.16;5056759;28;20495;-66
2023/02/23 11:42:16;;;;;;;12.75;8.10;;;;;;;10.99;59.33;96518.81;5056749;28;20484;-63
2023/02/23 11:44:51;;;;;;;14.23;8.10;;;;;;;10.73;60.42;96515.44;5056702;28;20049;-65
2023/02/23 11:47:21;;;;;;;13.57;8.75;;;;;;;10.74;60.57;96515.38;5056533;28;20479;-63
2023/02/23 11:49:49;;;;;;;13.35;8.30;;;;;;;10.65;60.70;96514.91;5056736;28;20041;-66
2023/02/23 11:52:19;;;;;;;12.48;8.13;;;;;;;10.58;61.60;96514.28;5056515;28;20081;-64
2023/02/23 11:54:54;;;;;;;15.07;8.40;;;;;;;10.57;60.88;96512.59;5056423;28;20051;-65
2023/02/23 11:57:23;;;;;;;16.60;8.23;;;;;;;10.47;62.04;96514.69;5056363;28;20124;-65
2023/02/23 11:59:53;;;;;;;13.05;7.80;;;;;;;10.59;61.52;96527.28;5056388;28;20506;-63
2023/02/23 12:02:23;;;;;;;13.10;8.20;;;;;;;10.23;62.48;96533.81;5056364;28;20141;-64
2023/02/23 12:04:51;;;;;;;;;;;;;;;9.89;63.85;96521.13;5056738;28;20406;-65
2023/02/23 12:07:30;;;;;;;17.35;8.95;;;;;;;9.79;64.77;96516.22;5056154;28;19924;-65
2023/02/23 12:10:05;;;;;;;15.27;8.75;;;;;;;9.99;65.21;96523.34;5056195;28;20049;-63
2023/02/23 12:12:41;;;;;;;12.23;8.13;;;;;;;10.23;63.51;96517.28;5056254;28;20430;-64
2023/02/23 12:15:21;;;;;;;11.20;8.10;;;;;;;10.21;63.31;96517.31;5055966;28;20111;-64
2023/02/23 12:17:53;;;;;;;14.07;8.10;;;;;;;10.22;63.44;96524.28;5056270;28;20062;-65
2023/02/23 12:20:24;;;;;;;13.30;7.78;;;;;;;10.21;63.73;96519.94;5055966;28;20045;-63
2023/02/23 12:22:54;;;;;;;14.68;8.30;;;;;;;10.28;62.99;96504.03;5056127;28;20128;-66
2023/02/23 12:25:27;;;;;;;18.13;8.15;;;;;;;10.29;63.13;96530.13;5056331;28;20056;-65
2023/02/23 12:28:03;;;;;;;16.17;8.88;;;;;;;10.32;63.06;96518.69;5055757;28;20044;-66
2023/02/23 12:30:42;;;;;;;14.65;8.35;;;;;;;10.51;62.83;96518.91;5055372;28;20052;-66
2023/02/23 12:33:15;;;;;;;14.40;7.45;;;;;;;10.69;62.27;96529.56;5055617;28;20482;-65
2023/02/23 12:35:49;;;;;;;12.65;7.28;;;;;;;10.65;61.44;96525.38;5055758;28;20045;-64
2023/02/23 12:38:26;;;;;;;13.30;7.45;;;;;;;10.74;61.47;96540.69;5055589;28;20048;-65
2023/02/23 12:40:59;;;;;;;14.27;7.20;;;;;;;10.64;61.61;96534.09;5055663;28;20133;-66
2023/02/23 12:43:35;;;;;;;12.40;7.38;;;;;;;10.66;61.97;96540.16;5055724;28;20053;-65
2023/02/23 12:46:10;;;;;;;11.95;7.30;;;;;;;10.59;61.56;96529.91;5055408;28;20451;-66
2023/02/23 12:48:48;;;;;;;12.05;7.57;;;;;;;10.59;61.53;96532.53;5055509;28;20195;-66
2023/02/23 12:51:24;;;;;;;14.27;7.93;;;;;;;10.47;62.05;96531.22;5055473;28;20140;-66
2023/02/23 12:53:52;;;;;;;14.98;7.85;;;;;;;10.20;62.62;96541.78;5055402;28;20081;-63
2023/02/23 12:56:35;;;;;;;13.88;7.55;;;;;;;10.20;63.36;96533.06;5055243;28;20057;-64
2023/02/23 12:59:45;;;;;;;16.95;7.55;;;;;;;10.35;62.87;96537.75;5055278;28;20041;-66
2023/02/23 13:02:18;;;;;;;13.68;7.28;;;;;;;10.31;62.38;96544.00;5055205;28;20506;-66
2023/02/23 13:05:14;;;;;;;13.98;6.55;;;;;;;10.21;62.80;96543.47;5055315;28;20057;-64
2023/02/23 13:07:51;;;;;;;13.30;7.25;;;;;;;10.08;63.98;96537.84;5054908;28;20053;-65
2023/02/23 13:10:30;;;;;;;9.02;6.10;;;;;;;10.14;63.57;96546.38;5055102;28;20045;-64
2023/02/23 13:13:11;;;;;;;14.23;7.22;;;;;;;10.07;63.88;96551.81;5055025;28;20057;-64